ΕΜΥ, Εθνική Μετεωρολογική Υπηρεσία - Δελτία Καιρού, Προγνώσεις

ΑΕΡΟΝΑΥΤΙΛΙΑ

GREEK AIRPORTS CODES

TAF LGML 140700Z 1409/1418 36020KT 9999 FEW012 TEMPO 1409/1416 36020G30KT=

EUROPEAN AIRPORTS CODES

LFPO 140900Z 26008KT 220V290 CAVOK 22/10 Q1018 NOSIG=